sensor_id;sensor_type;location;lat;lon;timestamp;pressure;altitude;pressure_sealevel;temperature;humidity
44453;BME280;30155;52.164;21.236;2023-05-20T00:01:18;101630.48;;;12.74;83.95
44453;BME280;30155;52.164;21.236;2023-05-20T00:06:12;101629.04;;;12.72;84.02
44453;BME280;30155;52.164;21.236;2023-05-20T00:11:04;101630.02;;;12.69;83.99
44453;BME280;30155;52.164;21.236;2023-05-20T00:15:57;101627.88;;;12.67;83.98
44453;BME280;30155;52.164;21.236;2023-05-20T00:20:50;101621.61;;;12.67;83.80
44453;BME280;30155;52.164;21.236;2023-05-20T00:25:44;101614.75;;;12.63;83.73
44453;BME280;30155;52.164;21.236;2023-05-20T00:30:40;101610.45;;;12.58;83.56
44453;BME280;30155;52.164;21.236;2023-05-20T00:35:33;101607.41;;;12.54;83.68
44453;BME280;30155;52.164;21.236;2023-05-20T00:40:27;101607.14;;;12.50;83.54
44453;BME280;30155;52.164;21.236;2023-05-20T00:45:20;101608.95;;;12.46;83.42
44453;BME280;30155;52.164;21.236;2023-05-20T00:50:13;101613.81;;;12.45;83.44
44453;BME280;30155;52.164;21.236;2023-05-20T00:55:06;101610.99;;;12.43;83.38
44453;BME280;30155;52.164;21.236;2023-05-20T01:00:00;101610.98;;;12.43;83.46
44453;BME280;30155;52.164;21.236;2023-05-20T01:04:53;101608.34;;;12.42;83.38
44453;BME280;30155;52.164;21.236;2023-05-20T01:09:47;101608.65;;;12.40;83.26
44453;BME280;30155;52.164;21.236;2023-05-20T01:14:55;101606.33;;;12.38;83.32
44453;BME280;30155;52.164;21.236;2023-05-20T01:19:53;101608.05;;;12.36;83.41
44453;BME280;30155;52.164;21.236;2023-05-20T01:24:46;101610.10;;;12.35;83.28
44453;BME280;30155;52.164;21.236;2023-05-20T01:29:41;101613.52;;;12.33;83.34
44453;BME280;30155;52.164;21.236;2023-05-20T01:34:35;101615.27;;;12.33;83.46
44453;BME280;30155;52.164;21.236;2023-05-20T01:39:29;101612.83;;;12.33;83.54
44453;BME280;30155;52.164;21.236;2023-05-20T01:44:23;101611.96;;;12.34;83.60
44453;BME280;30155;52.164;21.236;2023-05-20T01:49:16;101612.33;;;12.34;83.53
44453;BME280;30155;52.164;21.236;2023-05-20T01:54:09;101608.83;;;12.34;83.45
44453;BME280;30155;52.164;21.236;2023-05-20T01:59:02;101606.55;;;12.32;83.47
44453;BME280;30155;52.164;21.236;2023-05-20T02:03:55;101599.92;;;12.31;83.55
44453;BME280;30155;52.164;21.236;2023-05-20T02:08:48;101598.17;;;12.31;83.51
44453;BME280;30155;52.164;21.236;2023-05-20T02:13:42;101599.71;;;12.30;83.60
44453;BME280;30155;52.164;21.236;2023-05-20T02:18:35;101594.35;;;12.31;83.36
44453;BME280;30155;52.164;21.236;2023-05-20T02:23:30;101597.36;;;12.33;83.65
44453;BME280;30155;52.164;21.236;2023-05-20T02:28:23;101601.18;;;12.33;83.42
44453;BME280;30155;52.164;21.236;2023-05-20T02:33:16;101600.50;;;12.34;83.55
44453;BME280;30155;52.164;21.236;2023-05-20T02:38:11;101605.36;;;12.33;83.67
44453;BME280;30155;52.164;21.236;2023-05-20T02:43:04;101605.52;;;12.33;83.41
44453;BME280;30155;52.164;21.236;2023-05-20T02:47:58;101601.17;;;12.33;83.33
44453;BME280;30155;52.164;21.236;2023-05-20T02:52:51;101602.27;;;12.35;83.07
44453;BME280;30155;52.164;21.236;2023-05-20T02:57:44;101605.96;;;12.37;82.96
44453;BME280;30155;52.164;21.236;2023-05-20T03:02:37;101606.39;;;12.40;82.96
44453;BME280;30155;52.164;21.236;2023-05-20T03:07:34;101610.29;;;12.43;82.68
44453;BME280;30155;52.164;21.236;2023-05-20T03:12:29;101612.95;;;12.45;82.58
44453;BME280;30155;52.164;21.236;2023-05-20T03:17:22;101613.18;;;12.48;82.62
44453;BME280;30155;52.164;21.236;2023-05-20T03:22:15;101610.12;;;12.51;82.39
44453;BME280;30155;52.164;21.236;2023-05-20T03:27:08;101613.66;;;12.54;82.38
44453;BME280;30155;52.164;21.236;2023-05-20T03:32:02;101617.42;;;12.58;82.24
44453;BME280;30155;52.164;21.236;2023-05-20T03:36:55;101617.15;;;12.63;82.08
44453;BME280;30155;52.164;21.236;2023-05-20T03:41:50;101623.52;;;12.67;82.00
44453;BME280;30155;52.164;21.236;2023-05-20T03:46:44;101616.64;;;12.70;81.91
44453;BME280;30155;52.164;21.236;2023-05-20T03:51:37;101613.09;;;12.74;81.76
44453;BME280;30155;52.164;21.236;2023-05-20T03:56:34;101613.36;;;12.79;81.76
44453;BME280;30155;52.164;21.236;2023-05-20T04:01:27;101614.70;;;12.85;81.52
44453;BME280;30155;52.164;21.236;2023-05-20T04:06:20;101616.78;;;12.92;81.43
44453;BME280;30155;52.164;21.236;2023-05-20T04:11:13;101618.66;;;12.99;81.26
44453;BME280;30155;52.164;21.236;2023-05-20T04:16:06;101616.69;;;13.04;81.25
44453;BME280;30155;52.164;21.236;2023-05-20T04:20:59;101612.81;;;13.10;81.21
44453;BME280;30155;52.164;21.236;2023-05-20T04:25:52;101617.46;;;13.16;81.10
44453;BME280;30155;52.164;21.236;2023-05-20T04:30:46;101610.31;;;13.24;80.89
44453;BME280;30155;52.164;21.236;2023-05-20T04:35:40;101613.84;;;13.33;80.75
44453;BME280;30155;52.164;21.236;2023-05-20T04:40:34;101615.39;;;13.42;80.66
44453;BME280;30155;52.164;21.236;2023-05-20T04:45:27;101612.81;;;13.52;80.49
44453;BME280;30155;52.164;21.236;2023-05-20T04:50:20;101608.52;;;13.64;80.22
44453;BME280;30155;52.164;21.236;2023-05-20T04:55:13;101605.03;;;13.74;79.97
44453;BME280;30155;52.164;21.236;2023-05-20T05:00:08;101605.20;;;13.84;79.81
44453;BME280;30155;52.164;21.236;2023-05-20T05:05:01;101609.39;;;13.94;79.47
44453;BME280;30155;52.164;21.236;2023-05-20T05:09:54;101613.41;;;14.06;79.14
44453;BME280;30155;52.164;21.236;2023-05-20T05:14:47;101619.20;;;14.18;78.98
44453;BME280;30155;52.164;21.236;2023-05-20T05:19:41;101621.22;;;14.35;78.63
44453;BME280;30155;52.164;21.236;2023-05-20T05:24:34;101619.05;;;14.53;78.18
44453;BME280;30155;52.164;21.236;2023-05-20T05:29:27;101613.96;;;14.72;77.74
44453;BME280;30155;52.164;21.236;2023-05-20T05:34:20;101608.67;;;14.94;77.52
44453;BME280;30155;52.164;21.236;2023-05-20T05:39:13;101618.20;;;15.15;77.18
44453;BME280;30155;52.164;21.236;2023-05-20T05:44:06;101616.34;;;15.35;76.78
44453;BME280;30155;52.164;21.236;2023-05-20T05:48:59;101621.41;;;15.51;76.26
44453;BME280;30155;52.164;21.236;2023-05-20T05:53:52;101618.91;;;15.61;75.77
44453;BME280;30155;52.164;21.236;2023-05-20T05:58:45;101620.00;;;15.80;75.55
44453;BME280;30155;52.164;21.236;2023-05-20T06:03:39;101616.36;;;16.03;74.87
44453;BME280;30155;52.164;21.236;2023-05-20T06:08:32;101609.61;;;16.34;74.78
44453;BME280;30155;52.164;21.236;2023-05-20T06:13:25;101613.77;;;16.79;74.12
44453;BME280;30155;52.164;21.236;2023-05-20T06:18:20;101611.41;;;17.34;72.81
44453;BME280;30155;52.164;21.236;2023-05-20T06:23:15;101611.49;;;17.71;71.76
44453;BME280;30155;52.164;21.236;2023-05-20T06:28:16;101610.86;;;18.05;71.36
44453;BME280;30155;52.164;21.236;2023-05-20T06:33:10;101603.65;;;18.32;70.65
44453;BME280;30155;52.164;21.236;2023-05-20T06:38:03;101603.97;;;18.60;69.68
44453;BME280;30155;52.164;21.236;2023-05-20T06:42:57;101603.27;;;19.13;68.84
44453;BME280;30155;52.164;21.236;2023-05-20T06:48:09;101591.59;;;20.11;66.79
44453;BME280;30155;52.164;21.236;2023-05-20T06:53:02;101584.45;;;20.62;66.21
44453;BME280;30155;52.164;21.236;2023-05-20T06:57:56;101582.04;;;20.88;65.94
44453;BME280;30155;52.164;21.236;2023-05-20T07:02:49;101580.66;;;21.26;65.00
44453;BME280;30155;52.164;21.236;2023-05-20T07:07:43;101579.23;;;21.15;64.44
44453;BME280;30155;52.164;21.236;2023-05-20T07:12:37;101572.56;;;21.52;63.77
44453;BME280;30155;52.164;21.236;2023-05-20T07:17:30;101562.91;;;22.35;62.34
44453;BME280;30155;52.164;21.236;2023-05-20T07:22:23;101561.52;;;22.53;62.14
44453;BME280;30155;52.164;21.236;2023-05-20T07:27:32;101558.92;;;23.96;59.97
44453;BME280;30155;52.164;21.236;2023-05-20T07:32:26;101556.24;;;25.57;57.48
44453;BME280;30155;52.164;21.236;2023-05-20T07:37:19;101549.80;;;27.24;55.11
44453;BME280;30155;52.164;21.236;2023-05-20T07:42:13;101541.80;;;29.50;51.64
44453;BME280;30155;52.164;21.236;2023-05-20T07:47:09;101541.23;;;30.50;49.98
44453;BME280;30155;52.164;21.236;2023-05-20T07:52:02;101536.52;;;29.20;50.90
44453;BME280;30155;52.164;21.236;2023-05-20T07:56:56;101535.89;;;28.99;49.62
44453;BME280;30155;52.164;21.236;2023-05-20T08:01:52;101533.58;;;28.33;49.31
44453;BME280;30155;52.164;21.236;2023-05-20T08:06:45;101533.05;;;28.40;48.33
44453;BME280;30155;52.164;21.236;2023-05-20T08:11:44;101531.25;;;29.07;47.38
44453;BME280;30155;52.164;21.236;2023-05-20T08:16:38;101534.93;;;29.85;45.08
44453;BME280;30155;52.164;21.236;2023-05-20T08:21:32;101534.88;;;31.60;43.26
44453;BME280;30155;52.164;21.236;2023-05-20T08:26:26;101533.46;;;31.75;43.00
44453;BME280;30155;52.164;21.236;2023-05-20T08:31:18;101532.27;;;29.94;44.35
44453;BME280;30155;52.164;21.236;2023-05-20T08:36:12;101533.64;;;30.30;43.64
44453;BME280;30155;52.164;21.236;2023-05-20T08:41:05;101533.08;;;32.50;40.44
44453;BME280;30155;52.164;21.236;2023-05-20T08:45:58;101527.62;;;32.83;39.41
44453;BME280;30155;52.164;21.236;2023-05-20T08:50:56;101533.80;;;31.33;41.31
44453;BME280;30155;52.164;21.236;2023-05-20T08:55:54;101528.96;;;30.45;42.47
44453;BME280;30155;52.164;21.236;2023-05-20T09:00:51;101527.13;;;30.56;41.94
44453;BME280;30155;52.164;21.236;2023-05-20T09:05:46;101529.74;;;29.23;42.89
44453;BME280;30155;52.164;21.236;2023-05-20T09:10:40;101521.38;;;28.58;44.16
44453;BME280;30155;52.164;21.236;2023-05-20T09:15:34;101519.44;;;29.68;42.42
44453;BME280;30155;52.164;21.236;2023-05-20T09:20:28;101517.79;;;31.86;39.71
44453;BME280;30155;52.164;21.236;2023-05-20T09:25:22;101514.73;;;32.25;39.29
44453;BME280;30155;52.164;21.236;2023-05-20T09:30:19;101517.18;;;31.84;39.47
44453;BME280;30155;52.164;21.236;2023-05-20T09:35:12;101507.56;;;32.96;38.03
44453;BME280;30155;52.164;21.236;2023-05-20T09:40:06;101507.93;;;34.45;36.35
44453;BME280;30155;52.164;21.236;2023-05-20T09:45:01;101513.65;;;35.47;34.77
44453;BME280;30155;52.164;21.236;2023-05-20T09:49:55;101506.55;;;35.86;33.55
44453;BME280;30155;52.164;21.236;2023-05-20T09:54:49;101505.10;;;35.62;32.71
44453;BME280;30155;52.164;21.236;2023-05-20T09:59:43;101501.45;;;36.10;32.44
44453;BME280;30155;52.164;21.236;2023-05-20T10:04:37;101503.67;;;36.46;32.53
44453;BME280;30155;52.164;21.236;2023-05-20T10:10:02;101501.73;;;35.75;33.23
44453;BME280;30155;52.164;21.236;2023-05-20T10:20:31;101492.71;;;33.06;34.59
44453;BME280;30155;52.164;21.236;2023-05-20T10:25:26;101494.86;;;32.04;35.46
44453;BME280;30155;52.164;21.236;2023-05-20T10:30:20;101500.25;;;30.43;36.95
44453;BME280;30155;52.164;21.236;2023-05-20T10:35:20;101494.13;;;30.77;37.12
44453;BME280;30155;52.164;21.236;2023-05-20T10:40:15;101488.02;;;30.64;36.28
44453;BME280;30155;52.164;21.236;2023-05-20T10:45:10;101480.78;;;30.23;36.43
44453;BME280;30155;52.164;21.236;2023-05-20T10:50:04;101470.74;;;30.06;37.25
44453;BME280;30155;52.164;21.236;2023-05-20T10:54:59;101466.65;;;29.50;38.02
44453;BME280;30155;52.164;21.236;2023-05-20T10:59:53;101466.29;;;29.82;38.30
44453;BME280;30155;52.164;21.236;2023-05-20T11:04:47;101464.98;;;29.26;38.48
44453;BME280;30155;52.164;21.236;2023-05-20T11:09:48;101461.26;;;28.97;38.75
44453;BME280;30155;52.164;21.236;2023-05-20T11:14:41;101453.02;;;28.52;39.61
44453;BME280;30155;52.164;21.236;2023-05-20T11:19:36;101445.64;;;28.57;39.80
44453;BME280;30155;52.164;21.236;2023-05-20T11:24:29;101441.80;;;28.78;39.65
44453;BME280;30155;52.164;21.236;2023-05-20T11:29:22;101429.97;;;28.90;39.44
44453;BME280;30155;52.164;21.236;2023-05-20T11:34:15;101427.23;;;29.21;39.91
44453;BME280;30155;52.164;21.236;2023-05-20T11:39:12;101434.60;;;29.28;39.68
44453;BME280;30155;52.164;21.236;2023-05-20T11:44:09;101432.17;;;29.47;39.59
44453;BME280;30155;52.164;21.236;2023-05-20T11:49:05;101433.95;;;29.48;39.03
44453;BME280;30155;52.164;21.236;2023-05-20T11:54:00;101433.41;;;29.19;38.99
44453;BME280;30155;52.164;21.236;2023-05-20T11:58:56;101434.05;;;29.02;39.47
44453;BME280;30155;52.164;21.236;2023-05-20T12:03:49;101429.00;;;28.81;39.87
44453;BME280;30155;52.164;21.236;2023-05-20T12:08:43;101431.61;;;28.29;40.08
44453;BME280;30155;52.164;21.236;2023-05-20T12:13:36;101434.70;;;27.67;40.74
44453;BME280;30155;52.164;21.236;2023-05-20T12:18:35;101431.71;;;27.10;41.63
44453;BME280;30155;52.164;21.236;2023-05-20T12:23:28;101428.75;;;26.86;42.00
44453;BME280;30155;52.164;21.236;2023-05-20T12:28:24;101430.84;;;26.74;42.17
44453;BME280;30155;52.164;21.236;2023-05-20T12:33:17;101428.84;;;26.61;42.85
44453;BME280;30155;52.164;21.236;2023-05-20T12:38:11;101428.48;;;26.51;43.14
44453;BME280;30155;52.164;21.236;2023-05-20T12:43:04;101423.23;;;26.31;43.76
44453;BME280;30155;52.164;21.236;2023-05-20T12:47:57;101423.59;;;26.06;44.06
44453;BME280;30155;52.164;21.236;2023-05-20T12:52:50;101419.26;;;25.73;44.34
44453;BME280;30155;52.164;21.236;2023-05-20T12:57:45;101415.52;;;25.42;44.64
44453;BME280;30155;52.164;21.236;2023-05-20T13:02:41;101410.64;;;25.23;45.20
44453;BME280;30155;52.164;21.236;2023-05-20T13:07:34;101409.44;;;25.10;45.49
44453;BME280;30155;52.164;21.236;2023-05-20T13:12:28;101401.83;;;25.04;46.11
44453;BME280;30155;52.164;21.236;2023-05-20T13:17:21;101390.09;;;25.11;47.18
44453;BME280;30155;52.164;21.236;2023-05-20T13:22:14;101387.39;;;26.09;47.02
44453;BME280;30155;52.164;21.236;2023-05-20T13:27:07;101385.71;;;27.04;45.18
44453;BME280;30155;52.164;21.236;2023-05-20T13:32:00;101381.71;;;27.69;44.90
44453;BME280;30155;52.164;21.236;2023-05-20T13:36:53;101381.86;;;27.90;43.51
44453;BME280;30155;52.164;21.236;2023-05-20T13:41:46;101381.17;;;27.94;43.43
44453;BME280;30155;52.164;21.236;2023-05-20T13:46:39;101374.92;;;27.98;42.97
44453;BME280;30155;52.164;21.236;2023-05-20T13:51:33;101377.98;;;27.85;42.54
44453;BME280;30155;52.164;21.236;2023-05-20T13:56:26;101370.21;;;27.83;42.84
44453;BME280;30155;52.164;21.236;2023-05-20T14:01:19;101363.23;;;27.92;42.51
44453;BME280;30155;52.164;21.236;2023-05-20T14:06:13;101363.73;;;27.89;42.41
44453;BME280;30155;52.164;21.236;2023-05-20T14:11:09;101359.02;;;27.95;41.97
44453;BME280;30155;52.164;21.236;2023-05-20T14:16:02;101350.73;;;27.93;41.70
44453;BME280;30155;52.164;21.236;2023-05-20T14:26:56;101348.30;;;27.71;40.83
44453;BME280;30155;52.164;21.236;2023-05-20T14:31:49;101345.29;;;27.59;41.18
44453;BME280;30155;52.164;21.236;2023-05-20T14:36:42;101344.91;;;27.59;41.52
44453;BME280;30155;52.164;21.236;2023-05-20T14:41:35;101341.39;;;27.70;41.77
44453;BME280;30155;52.164;21.236;2023-05-20T14:46:29;101342.77;;;27.76;41.05
44453;BME280;30155;52.164;21.236;2023-05-20T14:51:22;101339.77;;;27.63;40.90
44453;BME280;30155;52.164;21.236;2023-05-20T14:56:15;101338.65;;;27.52;40.79
44453;BME280;30155;52.164;21.236;2023-05-20T15:01:21;101336.05;;;27.42;40.84
44453;BME280;30155;52.164;21.236;2023-05-20T15:06:33;101330.93;;;27.24;40.91
44453;BME280;30155;52.164;21.236;2023-05-20T15:11:30;101325.70;;;26.75;41.81
44453;BME280;30155;52.164;21.236;2023-05-20T15:16:48;101329.11;;;26.38;42.10
44453;BME280;30155;52.164;21.236;2023-05-20T15:21:52;101320.58;;;26.66;41.97
44453;BME280;30155;52.164;21.236;2023-05-20T15:27:02;101317.19;;;26.79;41.79
44453;BME280;30155;52.164;21.236;2023-05-20T15:32:09;101313.09;;;26.56;42.02
44453;BME280;30155;52.164;21.236;2023-05-20T15:37:05;101302.70;;;26.63;41.85
44453;BME280;30155;52.164;21.236;2023-05-20T15:42:03;101308.88;;;26.46;42.21
44453;BME280;30155;52.164;21.236;2023-05-20T15:48:02;101310.26;;;26.01;42.47
44453;BME280;30155;52.164;21.236;2023-05-20T15:53:31;101311.83;;;25.44;42.92
44453;BME280;30155;52.164;21.236;2023-05-20T15:59:13;101304.23;;;25.07;43.73
44453;BME280;30155;52.164;21.236;2023-05-20T16:04:59;101311.61;;;25.03;43.88
44453;BME280;30155;52.164;21.236;2023-05-20T16:10:38;101310.30;;;25.36;43.69
44453;BME280;30155;52.164;21.236;2023-05-20T16:15:34;101308.95;;;25.55;43.46
44453;BME280;30155;52.164;21.236;2023-05-20T16:20:56;101307.76;;;25.58;43.32
44453;BME280;30155;52.164;21.236;2023-05-20T16:25:49;101308.55;;;25.56;43.33
44453;BME280;30155;52.164;21.236;2023-05-20T16:30:52;101308.53;;;25.37;43.87
44453;BME280;30155;52.164;21.236;2023-05-20T16:36:24;101314.17;;;25.22;43.59
44453;BME280;30155;52.164;21.236;2023-05-20T16:42:07;101314.96;;;25.09;43.54
44453;BME280;30155;52.164;21.236;2023-05-20T16:47:27;101317.30;;;24.92;43.26
44453;BME280;30155;52.164;21.236;2023-05-20T16:52:33;101322.21;;;24.72;43.45
44453;BME280;30155;52.164;21.236;2023-05-20T16:57:49;101329.86;;;24.48;43.60
44453;BME280;30155;52.164;21.236;2023-05-20T17:03:23;101326.92;;;24.22;43.74
44453;BME280;30155;52.164;21.236;2023-05-20T17:08:39;101327.39;;;24.00;44.13
44453;BME280;30155;52.164;21.236;2023-05-20T17:20:52;101336.78;;;23.48;44.77
44453;BME280;30155;52.164;21.236;2023-05-20T17:26:24;101340.37;;;23.33;45.23
44453;BME280;30155;52.164;21.236;2023-05-20T17:31:55;101339.77;;;23.15;45.88
44453;BME280;30155;52.164;21.236;2023-05-20T17:37:23;101340.09;;;22.94;46.51
44453;BME280;30155;52.164;21.236;2023-05-20T17:42:57;101344.80;;;22.67;47.13
44453;BME280;30155;52.164;21.236;2023-05-20T17:48:32;101354.16;;;22.35;48.22
44453;BME280;30155;52.164;21.236;2023-05-20T17:53:53;101355.68;;;22.04;48.62
44453;BME280;30155;52.164;21.236;2023-05-20T18:05:57;101356.77;;;21.36;50.08
44453;BME280;30155;52.164;21.236;2023-05-20T18:11:05;101351.06;;;21.09;50.48
44453;BME280;30155;52.164;21.236;2023-05-20T18:15:59;101358.63;;;20.87;51.06
44453;BME280;30155;52.164;21.236;2023-05-20T18:20:59;101355.23;;;20.67;51.51
44453;BME280;30155;52.164;21.236;2023-05-20T18:26:02;101362.73;;;20.46;51.98
44453;BME280;30155;52.164;21.236;2023-05-20T18:31:20;101368.35;;;20.19;52.81
44453;BME280;30155;52.164;21.236;2023-05-20T18:36:38;101371.13;;;19.95;53.19
44453;BME280;30155;52.164;21.236;2023-05-20T18:41:50;101372.04;;;19.72;53.64
44453;BME280;30155;52.164;21.236;2023-05-20T18:46:44;101378.42;;;19.50;54.45
44453;BME280;30155;52.164;21.236;2023-05-20T18:51:42;101380.05;;;19.24;54.57
44453;BME280;30155;52.164;21.236;2023-05-20T18:57:01;101375.49;;;18.99;55.06
44453;BME280;30155;52.164;21.236;2023-05-20T19:03:15;101372.31;;;18.72;55.75
44453;BME280;30155;52.164;21.236;2023-05-20T19:08:40;101380.50;;;18.53;56.27
44453;BME280;30155;52.164;21.236;2023-05-20T19:13:51;101379.70;;;18.39;56.70
44453;BME280;30155;52.164;21.236;2023-05-20T19:18:51;101374.14;;;18.23;57.14
44453;BME280;30155;52.164;21.236;2023-05-20T19:23:44;101377.36;;;18.08;57.45
44453;BME280;30155;52.164;21.236;2023-05-20T19:28:37;101376.20;;;17.92;57.90
44453;BME280;30155;52.164;21.236;2023-05-20T19:33:30;101371.64;;;17.74;58.39
44453;BME280;30155;52.164;21.236;2023-05-20T19:38:23;101371.15;;;17.55;58.81
44453;BME280;30155;52.164;21.236;2023-05-20T19:43:16;101362.05;;;17.38;59.22
44453;BME280;30155;52.164;21.236;2023-05-20T19:48:09;101364.17;;;17.23;59.66
44453;BME280;30155;52.164;21.236;2023-05-20T19:53:02;101363.30;;;17.08;59.97
44453;BME280;30155;52.164;21.236;2023-05-20T19:57:57;101366.61;;;16.99;60.31
44453;BME280;30155;52.164;21.236;2023-05-20T20:02:51;101372.18;;;16.84;60.51
44453;BME280;30155;52.164;21.236;2023-05-20T20:07:44;101370.39;;;16.69;60.97
44453;BME280;30155;52.164;21.236;2023-05-20T20:12:38;101369.85;;;16.59;61.48
44453;BME280;30155;52.164;21.236;2023-05-20T20:17:31;101371.75;;;16.53;61.47
44453;BME280;30155;52.164;21.236;2023-05-20T20:22:24;101374.52;;;16.42;61.47
44453;BME280;30155;52.164;21.236;2023-05-20T20:27:17;101376.05;;;16.31;61.70
44453;BME280;30155;52.164;21.236;2023-05-20T20:32:11;101380.04;;;16.21;61.98
44453;BME280;30155;52.164;21.236;2023-05-20T20:37:04;101384.91;;;16.15;62.36
44453;BME280;30155;52.164;21.236;2023-05-20T20:41:58;101383.11;;;16.07;62.47
44453;BME280;30155;52.164;21.236;2023-05-20T20:46:53;101382.35;;;15.93;62.63
44453;BME280;30155;52.164;21.236;2023-05-20T20:51:49;101379.33;;;15.84;62.73
44453;BME280;30155;52.164;21.236;2023-05-20T20:56:42;101378.90;;;15.75;63.12
44453;BME280;30155;52.164;21.236;2023-05-20T21:01:38;101377.79;;;15.68;63.18
44453;BME280;30155;52.164;21.236;2023-05-20T21:06:35;101371.45;;;15.57;63.50
44453;BME280;30155;52.164;21.236;2023-05-20T21:11:29;101370.52;;;15.50;63.59
44453;BME280;30155;52.164;21.236;2023-05-20T21:16:22;101367.30;;;15.42;63.73
44453;BME280;30155;52.164;21.236;2023-05-20T21:21:15;101362.89;;;15.35;63.97
44453;BME280;30155;52.164;21.236;2023-05-20T21:26:11;101361.61;;;15.30;64.22
44453;BME280;30155;52.164;21.236;2023-05-20T21:31:03;101360.03;;;15.25;64.26
44453;BME280;30155;52.164;21.236;2023-05-20T21:35:56;101359.98;;;15.22;64.33
44453;BME280;30155;52.164;21.236;2023-05-20T21:40:53;101369.05;;;15.20;64.66
44453;BME280;30155;52.164;21.236;2023-05-20T21:45:49;101367.62;;;15.15;64.85
44453;BME280;30155;52.164;21.236;2023-05-20T21:50:42;101364.08;;;15.10;64.91
44453;BME280;30155;52.164;21.236;2023-05-20T21:55:35;101369.80;;;15.04;65.02
44453;BME280;30155;52.164;21.236;2023-05-20T22:00:29;101369.38;;;14.97;65.08
44453;BME280;30155;52.164;21.236;2023-05-20T22:05:22;101369.46;;;14.88;65.22
44453;BME280;30155;52.164;21.236;2023-05-20T22:10:16;101370.44;;;14.79;65.35
44453;BME280;30155;52.164;21.236;2023-05-20T22:15:13;101368.61;;;14.72;65.43
44453;BME280;30155;52.164;21.236;2023-05-20T22:20:07;101370.80;;;14.65;65.59
44453;BME280;30155;52.164;21.236;2023-05-20T22:25:02;101375.92;;;14.56;65.88
44453;BME280;30155;52.164;21.236;2023-05-20T22:29:55;101374.42;;;14.47;65.91
44453;BME280;30155;52.164;21.236;2023-05-20T22:34:48;101372.24;;;14.40;66.08
44453;BME280;30155;52.164;21.236;2023-05-20T22:39:44;101371.27;;;14.32;66.12
44453;BME280;30155;52.164;21.236;2023-05-20T22:44:37;101362.61;;;14.22;66.40
44453;BME280;30155;52.164;21.236;2023-05-20T22:49:30;101362.20;;;14.17;66.42
44453;BME280;30155;52.164;21.236;2023-05-20T22:54:23;101361.61;;;14.11;66.58
44453;BME280;30155;52.164;21.236;2023-05-20T22:59:20;101357.48;;;14.03;66.64
44453;BME280;30155;52.164;21.236;2023-05-20T23:04:14;101363.34;;;13.97;66.71
44453;BME280;30155;52.164;21.236;2023-05-20T23:09:07;101362.52;;;13.87;67.11
44453;BME280;30155;52.164;21.236;2023-05-20T23:14:02;101359.66;;;13.83;66.99
44453;BME280;30155;52.164;21.236;2023-05-20T23:18:56;101359.56;;;13.76;67.11
44453;BME280;30155;52.164;21.236;2023-05-20T23:23:49;101357.54;;;13.68;67.18
44453;BME280;30155;52.164;21.236;2023-05-20T23:28:42;101358.98;;;13.60;67.44
44453;BME280;30155;52.164;21.236;2023-05-20T23:33:35;101359.43;;;13.54;67.58
44453;BME280;30155;52.164;21.236;2023-05-20T23:38:28;101357.70;;;13.44;67.57
44453;BME280;30155;52.164;21.236;2023-05-20T23:43:22;101358.70;;;13.41;67.89
44453;BME280;30155;52.164;21.236;2023-05-20T23:48:15;101353.59;;;13.38;67.88
44453;BME280;30155;52.164;21.236;2023-05-20T23:53:10;101351.51;;;13.28;67.80
44453;BME280;30155;52.164;21.236;2023-05-20T23:58:03;101348.36;;;13.17;67.96
